sensor_id;sensor_type;location;lat;lon;timestamp;P1;durP1;ratioP1;P2;durP2;ratioP2
77738;SDS011;66904;59.926;30.404;2023-02-15T00:04:29;1.10;;;0.50;;
77738;SDS011;66904;59.926;30.404;2023-02-15T00:10:04;2.03;;;0.40;;
77738;SDS011;66904;59.926;30.404;2023-02-15T00:15:12;1.23;;;0.35;;
77738;SDS011;66904;59.926;30.404;2023-02-15T00:20:13;0.80;;;0.20;;
77738;SDS011;66904;59.926;30.404;2023-02-15T00:25:13;1.88;;;0.30;;
77738;SDS011;66904;59.926;30.404;2023-02-15T00:30:14;0.68;;;0.17;;
77738;SDS011;66904;59.926;30.404;2023-02-15T00:35:14;0.95;;;0.20;;
77738;SDS011;66904;59.926;30.404;2023-02-15T00:40:33;2.03;;;0.52;;
77738;SDS011;66904;59.926;30.404;2023-02-15T00:45:34;2.03;;;0.30;;
77738;SDS011;66904;59.926;30.404;2023-02-15T00:50:53;1.47;;;0.30;;
77738;SDS011;66904;59.926;30.404;2023-02-15T01:01:47;0.80;;;0.20;;
77738;SDS011;66904;59.926;30.404;2023-02-15T01:06:57;0.90;;;0.30;;
77738;SDS011;66904;59.926;30.404;2023-02-15T01:12:21;0.93;;;0.43;;
77738;SDS011;66904;59.926;30.404;2023-02-15T01:29:17;1.08;;;0.40;;
77738;SDS011;66904;59.926;30.404;2023-02-15T01:34:18;0.88;;;0.30;;
77738;SDS011;66904;59.926;30.404;2023-02-15T01:39:18;0.90;;;0.37;;
77738;SDS011;66904;59.926;30.404;2023-02-15T01:44:57;1.30;;;0.35;;
77738;SDS011;66904;59.926;30.404;2023-02-15T01:50:01;1.92;;;0.50;;
77738;SDS011;66904;59.926;30.404;2023-02-15T01:55:21;0.80;;;0.30;;
77738;SDS011;66904;59.926;30.404;2023-02-15T02:01:00;1.70;;;0.60;;
77738;SDS011;66904;59.926;30.404;2023-02-15T02:06:03;0.80;;;0.32;;
77738;SDS011;66904;59.926;30.404;2023-02-15T02:11:09;0.70;;;0.30;;
77738;SDS011;66904;59.926;30.404;2023-02-15T02:44:35;0.80;;;0.40;;
77738;SDS011;66904;59.926;30.404;2023-02-15T02:49:40;1.55;;;0.60;;
77738;SDS011;66904;59.926;30.404;2023-02-15T03:06:10;2.58;;;0.63;;
77738;SDS011;66904;59.926;30.404;2023-02-15T03:11:46;1.58;;;0.55;;
77738;SDS011;66904;59.926;30.404;2023-02-15T03:17:11;1.23;;;0.63;;
77738;SDS011;66904;59.926;30.404;2023-02-15T03:23:03;1.50;;;0.70;;
77738;SDS011;66904;59.926;30.404;2023-02-15T03:28:27;1.38;;;0.60;;
77738;SDS011;66904;59.926;30.404;2023-02-15T03:33:51;1.88;;;0.65;;
77738;SDS011;66904;59.926;30.404;2023-02-15T03:44:37;2.10;;;0.80;;
77738;SDS011;66904;59.926;30.404;2023-02-15T03:50:04;1.58;;;0.70;;
77738;SDS011;66904;59.926;30.404;2023-02-15T03:55:29;1.80;;;0.75;;
77738;SDS011;66904;59.926;30.404;2023-02-15T04:00:30;1.42;;;0.57;;
77738;SDS011;66904;59.926;30.404;2023-02-15T04:05:54;1.10;;;0.63;;
77738;SDS011;66904;59.926;30.404;2023-02-15T04:10:54;2.25;;;0.85;;
77738;SDS011;66904;59.926;30.404;2023-02-15T04:15:56;1.52;;;0.60;;
77738;SDS011;66904;59.926;30.404;2023-02-15T04:21:03;2.80;;;1.10;;
77738;SDS011;66904;59.926;30.404;2023-02-15T04:26:22;2.55;;;0.90;;
77738;SDS011;66904;59.926;30.404;2023-02-15T04:31:23;1.70;;;0.70;;
77738;SDS011;66904;59.926;30.404;2023-02-15T04:36:23;7.75;;;1.10;;
77738;SDS011;66904;59.926;30.404;2023-02-15T04:41:24;4.18;;;1.13;;
77738;SDS011;66904;59.926;30.404;2023-02-15T04:46:24;2.85;;;0.75;;
77738;SDS011;66904;59.926;30.404;2023-02-15T04:51:25;2.45;;;1.02;;
77738;SDS011;66904;59.926;30.404;2023-02-15T05:02:15;2.65;;;1.20;;
77738;SDS011;66904;59.926;30.404;2023-02-15T05:12:22;3.40;;;1.20;;
77738;SDS011;66904;59.926;30.404;2023-02-15T05:17:23;2.40;;;1.20;;
77738;SDS011;66904;59.926;30.404;2023-02-15T05:22:23;2.85;;;1.13;;
77738;SDS011;66904;59.926;30.404;2023-02-15T05:27:23;2.58;;;1.30;;
77738;SDS011;66904;59.926;30.404;2023-02-15T05:32:42;3.25;;;1.20;;
77738;SDS011;66904;59.926;30.404;2023-02-15T05:37:43;3.50;;;1.10;;
77738;SDS011;66904;59.926;30.404;2023-02-15T05:42:59;4.80;;;1.15;;
77738;SDS011;66904;59.926;30.404;2023-02-15T05:48:27;3.85;;;1.20;;
77738;SDS011;66904;59.926;30.404;2023-02-15T05:54:04;3.45;;;1.40;;
77738;SDS011;66904;59.926;30.404;2023-02-15T05:59:11;3.05;;;1.02;;
77738;SDS011;66904;59.926;30.404;2023-02-15T06:04:12;3.72;;;1.23;;
77738;SDS011;66904;59.926;30.404;2023-02-15T06:09:13;2.58;;;1.23;;
77738;SDS011;66904;59.926;30.404;2023-02-15T06:14:14;2.90;;;1.17;;
77738;SDS011;66904;59.926;30.404;2023-02-15T06:19:15;3.13;;;1.40;;
77738;SDS011;66904;59.926;30.404;2023-02-15T06:24:21;2.63;;;1.13;;
77738;SDS011;66904;59.926;30.404;2023-02-15T06:29:46;2.80;;;1.17;;
77738;SDS011;66904;59.926;30.404;2023-02-15T06:34:49;1.60;;;0.90;;
77738;SDS011;66904;59.926;30.404;2023-02-15T06:39:50;2.53;;;1.20;;
77738;SDS011;66904;59.926;30.404;2023-02-15T06:44:50;3.30;;;1.30;;
77738;SDS011;66904;59.926;30.404;2023-02-15T06:49:51;4.40;;;1.20;;
77738;SDS011;66904;59.926;30.404;2023-02-15T06:54:51;2.85;;;1.40;;
77738;SDS011;66904;59.926;30.404;2023-02-15T06:59:52;2.90;;;1.30;;
77738;SDS011;66904;59.926;30.404;2023-02-15T07:04:52;3.53;;;1.40;;
77738;SDS011;66904;59.926;30.404;2023-02-15T07:10:05;2.47;;;1.35;;
77738;SDS011;66904;59.926;30.404;2023-02-15T07:15:26;2.80;;;1.30;;
77738;SDS011;66904;59.926;30.404;2023-02-15T07:26:07;2.83;;;1.30;;
77738;SDS011;66904;59.926;30.404;2023-02-15T07:31:08;2.90;;;1.50;;
77738;SDS011;66904;59.926;30.404;2023-02-15T07:36:09;3.00;;;1.55;;
77738;SDS011;66904;59.926;30.404;2023-02-15T07:41:12;2.88;;;1.50;;
77738;SDS011;66904;59.926;30.404;2023-02-15T07:46:16;2.78;;;1.50;;
77738;SDS011;66904;59.926;30.404;2023-02-15T07:51:17;2.55;;;1.60;;
77738;SDS011;66904;59.926;30.404;2023-02-15T07:56:17;3.72;;;1.67;;
77738;SDS011;66904;59.926;30.404;2023-02-15T08:01:22;3.27;;;1.57;;
77738;SDS011;66904;59.926;30.404;2023-02-15T08:06:35;4.40;;;1.52;;
77738;SDS011;66904;59.926;30.404;2023-02-15T08:11:36;3.67;;;1.50;;
77738;SDS011;66904;59.926;30.404;2023-02-15T08:21:42;3.53;;;1.60;;
77738;SDS011;66904;59.926;30.404;2023-02-15T08:26:44;3.90;;;1.67;;
77738;SDS011;66904;59.926;30.404;2023-02-15T08:31:46;3.70;;;1.45;;
77738;SDS011;66904;59.926;30.404;2023-02-15T08:36:47;3.22;;;1.23;;
77738;SDS011;66904;59.926;30.404;2023-02-15T08:41:48;2.95;;;1.27;;
77738;SDS011;66904;59.926;30.404;2023-02-15T08:46:49;2.03;;;1.13;;
77738;SDS011;66904;59.926;30.404;2023-02-15T08:51:52;3.63;;;1.30;;
77738;SDS011;66904;59.926;30.404;2023-02-15T08:56:53;2.92;;;1.35;;
77738;SDS011;66904;59.926;30.404;2023-02-15T09:01:56;3.67;;;1.40;;
77738;SDS011;66904;59.926;30.404;2023-02-15T09:06:57;3.30;;;1.35;;
77738;SDS011;66904;59.926;30.404;2023-02-15T09:11:57;2.55;;;1.38;;
77738;SDS011;66904;59.926;30.404;2023-02-15T09:16:58;4.15;;;1.52;;
77738;SDS011;66904;59.926;30.404;2023-02-15T09:21:58;3.17;;;1.60;;
77738;SDS011;66904;59.926;30.404;2023-02-15T09:27:00;3.10;;;1.60;;
77738;SDS011;66904;59.926;30.404;2023-02-15T09:32:00;3.07;;;1.60;;
77738;SDS011;66904;59.926;30.404;2023-02-15T09:37:01;3.50;;;1.57;;
77738;SDS011;66904;59.926;30.404;2023-02-15T09:42:26;4.90;;;1.58;;
77738;SDS011;66904;59.926;30.404;2023-02-15T09:47:53;4.57;;;2.28;;
77738;SDS011;66904;59.926;30.404;2023-02-15T10:09:10;4.20;;;1.95;;
77738;SDS011;66904;59.926;30.404;2023-02-15T10:19:59;5.10;;;1.60;;
77738;SDS011;66904;59.926;30.404;2023-02-15T10:25:42;3.47;;;1.63;;
77738;SDS011;66904;59.926;30.404;2023-02-15T10:30:50;3.28;;;1.73;;
77738;SDS011;66904;59.926;30.404;2023-02-15T10:36:11;2.47;;;1.40;;
77738;SDS011;66904;59.926;30.404;2023-02-15T10:41:29;3.05;;;1.60;;
77738;SDS011;66904;59.926;30.404;2023-02-15T11:03:43;2.85;;;1.40;;
77738;SDS011;66904;59.926;30.404;2023-02-15T11:09:12;3.50;;;1.50;;
77738;SDS011;66904;59.926;30.404;2023-02-15T11:19:43;3.33;;;1.60;;
77738;SDS011;66904;59.926;30.404;2023-02-15T11:25:14;4.05;;;1.50;;
77738;SDS011;66904;59.926;30.404;2023-02-15T11:30:24;3.95;;;1.40;;
77738;SDS011;66904;59.926;30.404;2023-02-15T11:40:49;3.58;;;1.40;;
77738;SDS011;66904;59.926;30.404;2023-02-15T11:45:53;2.65;;;1.13;;
77738;SDS011;66904;59.926;30.404;2023-02-15T11:50:54;3.53;;;1.35;;
77738;SDS011;66904;59.926;30.404;2023-02-15T11:55:55;2.20;;;1.10;;
77738;SDS011;66904;59.926;30.404;2023-02-15T12:06:27;2.45;;;1.17;;
77738;SDS011;66904;59.926;30.404;2023-02-15T12:11:37;2.92;;;1.15;;
77738;SDS011;66904;59.926;30.404;2023-02-15T12:16:41;3.45;;;1.30;;
77738;SDS011;66904;59.926;30.404;2023-02-15T12:21:43;4.68;;;1.30;;
77738;SDS011;66904;59.926;30.404;2023-02-15T12:26:44;2.72;;;1.30;;
77738;SDS011;66904;59.926;30.404;2023-02-15T12:32:03;3.33;;;1.40;;
77738;SDS011;66904;59.926;30.404;2023-02-15T12:37:15;3.05;;;1.30;;
77738;SDS011;66904;59.926;30.404;2023-02-15T12:42:19;3.95;;;1.40;;
77738;SDS011;66904;59.926;30.404;2023-02-15T12:47:20;3.45;;;1.20;;
77738;SDS011;66904;59.926;30.404;2023-02-15T12:52:24;3.63;;;1.30;;
77738;SDS011;66904;59.926;30.404;2023-02-15T13:03:14;2.83;;;1.10;;
77738;SDS011;66904;59.926;30.404;2023-02-15T13:07:58;2.05;;;0.90;;
77738;SDS011;66904;59.926;30.404;2023-02-15T13:13:01;2.30;;;0.90;;
77738;SDS011;66904;59.926;30.404;2023-02-15T13:18:03;2.65;;;1.00;;
77738;SDS011;66904;59.926;30.404;2023-02-15T13:23:06;3.70;;;1.30;;
77738;SDS011;66904;59.926;30.404;2023-02-15T13:28:18;2.80;;;1.02;;
77738;SDS011;66904;59.926;30.404;2023-02-15T13:33:41;2.88;;;1.10;;
77738;SDS011;66904;59.926;30.404;2023-02-15T13:44:10;3.15;;;0.95;;
77738;SDS011;66904;59.926;30.404;2023-02-15T14:21:28;3.35;;;1.00;;
77738;SDS011;66904;59.926;30.404;2023-02-15T14:31:51;3.00;;;1.08;;
77738;SDS011;66904;59.926;30.404;2023-02-15T14:36:56;3.08;;;1.08;;
77738;SDS011;66904;59.926;30.404;2023-02-15T14:41:59;2.65;;;1.15;;
77738;SDS011;66904;59.926;30.404;2023-02-15T14:47:40;2.58;;;1.17;;
77738;SDS011;66904;59.926;30.404;2023-02-15T14:58:27;2.67;;;1.20;;
77738;SDS011;66904;59.926;30.404;2023-02-15T15:03:27;2.33;;;0.98;;
77738;SDS011;66904;59.926;30.404;2023-02-15T15:08:29;2.63;;;1.05;;
77738;SDS011;66904;59.926;30.404;2023-02-15T15:18:46;4.07;;;1.30;;
77738;SDS011;66904;59.926;30.404;2023-02-15T15:23:48;3.40;;;0.98;;
77738;SDS011;66904;59.926;30.404;2023-02-15T15:49:28;3.42;;;0.88;;
77738;SDS011;66904;59.926;30.404;2023-02-15T15:54:32;2.50;;;0.98;;
77738;SDS011;66904;59.926;30.404;2023-02-15T15:59:33;2.53;;;1.10;;
77738;SDS011;66904;59.926;30.404;2023-02-15T16:04:34;3.25;;;0.93;;
77738;SDS011;66904;59.926;30.404;2023-02-15T16:09:35;3.00;;;0.90;;
77738;SDS011;66904;59.926;30.404;2023-02-15T16:14:36;3.35;;;0.88;;
77738;SDS011;66904;59.926;30.404;2023-02-15T16:19:40;3.15;;;0.90;;
77738;SDS011;66904;59.926;30.404;2023-02-15T16:29:42;3.47;;;0.90;;
77738;SDS011;66904;59.926;30.404;2023-02-15T16:34:59;3.00;;;1.00;;
77738;SDS011;66904;59.926;30.404;2023-02-15T16:40:01;3.35;;;0.80;;
77738;SDS011;66904;59.926;30.404;2023-02-15T16:50:03;4.03;;;1.20;;
77738;SDS011;66904;59.926;30.404;2023-02-15T16:55:04;3.38;;;1.13;;
77738;SDS011;66904;59.926;30.404;2023-02-15T17:00:07;2.10;;;1.00;;
77738;SDS011;66904;59.926;30.404;2023-02-15T17:05:18;2.17;;;0.82;;
77738;SDS011;66904;59.926;30.404;2023-02-15T17:10:27;1.90;;;0.90;;
77738;SDS011;66904;59.926;30.404;2023-02-15T17:15:34;2.75;;;1.10;;
77738;SDS011;66904;59.926;30.404;2023-02-15T17:20:38;2.45;;;1.00;;
77738;SDS011;66904;59.926;30.404;2023-02-15T17:25:42;3.22;;;1.08;;
77738;SDS011;66904;59.926;30.404;2023-02-15T17:30:43;2.85;;;1.10;;
77738;SDS011;66904;59.926;30.404;2023-02-15T17:36:01;2.05;;;0.90;;
77738;SDS011;66904;59.926;30.404;2023-02-15T17:41:10;2.10;;;1.02;;
77738;SDS011;66904;59.926;30.404;2023-02-15T17:46:11;1.60;;;0.82;;
77738;SDS011;66904;59.926;30.404;2023-02-15T17:51:13;2.22;;;0.77;;
77738;SDS011;66904;59.926;30.404;2023-02-15T17:56:14;2.92;;;0.95;;
77738;SDS011;66904;59.926;30.404;2023-02-15T18:01:16;2.90;;;1.10;;
77738;SDS011;66904;59.926;30.404;2023-02-15T18:06:38;1.88;;;0.73;;
77738;SDS011;66904;59.926;30.404;2023-02-15T18:11:59;4.53;;;0.90;;
77738;SDS011;66904;59.926;30.404;2023-02-15T18:17:05;3.10;;;0.90;;
77738;SDS011;66904;59.926;30.404;2023-02-15T18:22:14;2.38;;;0.80;;
77738;SDS011;66904;59.926;30.404;2023-02-15T18:27:16;2.08;;;0.95;;
77738;SDS011;66904;59.926;30.404;2023-02-15T18:32:18;3.10;;;1.10;;
77738;SDS011;66904;59.926;30.404;2023-02-15T18:37:41;3.35;;;1.17;;
77738;SDS011;66904;59.926;30.404;2023-02-15T18:42:51;3.15;;;0.80;;
77738;SDS011;66904;59.926;30.404;2023-02-15T18:47:53;1.70;;;0.80;;
77738;SDS011;66904;59.926;30.404;2023-02-15T18:52:57;5.93;;;0.90;;
77738;SDS011;66904;59.926;30.404;2023-02-15T18:58:08;2.85;;;0.85;;
77738;SDS011;66904;59.926;30.404;2023-02-15T19:03:15;2.13;;;0.93;;
77738;SDS011;66904;59.926;30.404;2023-02-15T19:08:27;1.90;;;0.82;;
77738;SDS011;66904;59.926;30.404;2023-02-15T19:13:30;4.40;;;0.93;;
77738;SDS011;66904;59.926;30.404;2023-02-15T19:18:33;2.40;;;0.93;;
77738;SDS011;66904;59.926;30.404;2023-02-15T19:23:34;2.30;;;0.77;;
77738;SDS011;66904;59.926;30.404;2023-02-15T19:28:35;2.47;;;0.98;;
77738;SDS011;66904;59.926;30.404;2023-02-15T19:33:39;1.65;;;0.82;;
77738;SDS011;66904;59.926;30.404;2023-02-15T19:38:57;4.07;;;1.75;;
77738;SDS011;66904;59.926;30.404;2023-02-15T19:44:13;5.40;;;1.80;;
77738;SDS011;66904;59.926;30.404;2023-02-15T19:49:13;5.03;;;2.03;;
77738;SDS011;66904;59.926;30.404;2023-02-15T19:54:47;4.00;;;1.77;;
77738;SDS011;66904;59.926;30.404;2023-02-15T19:59:40;3.60;;;1.60;;
77738;SDS011;66904;59.926;30.404;2023-02-15T20:20:30;2.78;;;1.20;;
77738;SDS011;66904;59.926;30.404;2023-02-15T20:25:35;2.80;;;1.02;;
77738;SDS011;66904;59.926;30.404;2023-02-15T20:30:36;1.92;;;0.90;;
77738;SDS011;66904;59.926;30.404;2023-02-15T20:35:36;3.25;;;1.10;;
77738;SDS011;66904;59.926;30.404;2023-02-15T20:40:37;4.38;;;1.10;;
77738;SDS011;66904;59.926;30.404;2023-02-15T20:45:57;3.72;;;1.13;;
77738;SDS011;66904;59.926;30.404;2023-02-15T20:50:59;3.25;;;1.00;;
77738;SDS011;66904;59.926;30.404;2023-02-15T20:55:59;2.00;;;0.77;;
77738;SDS011;66904;59.926;30.404;2023-02-15T21:01:00;2.78;;;0.70;;
77738;SDS011;66904;59.926;30.404;2023-02-15T21:06:01;1.65;;;0.70;;
77738;SDS011;66904;59.926;30.404;2023-02-15T21:11:01;2.50;;;0.70;;
77738;SDS011;66904;59.926;30.404;2023-02-15T21:16:02;3.10;;;0.82;;
77738;SDS011;66904;59.926;30.404;2023-02-15T21:21:03;2.70;;;1.00;;
77738;SDS011;66904;59.926;30.404;2023-02-15T21:26:19;2.92;;;1.20;;
77738;SDS011;66904;59.926;30.404;2023-02-15T21:31:33;2.92;;;0.90;;
77738;SDS011;66904;59.926;30.404;2023-02-15T21:36:33;3.90;;;0.70;;
77738;SDS011;66904;59.926;30.404;2023-02-15T21:41:34;1.97;;;0.80;;
77738;SDS011;66904;59.926;30.404;2023-02-15T21:46:57;2.00;;;0.95;;
77738;SDS011;66904;59.926;30.404;2023-02-15T21:52:17;2.65;;;0.73;;
77738;SDS011;66904;59.926;30.404;2023-02-15T21:57:22;1.38;;;0.70;;
77738;SDS011;66904;59.926;30.404;2023-02-15T22:02:26;3.25;;;1.00;;
77738;SDS011;66904;59.926;30.404;2023-02-15T22:07:28;2.00;;;0.70;;
77738;SDS011;66904;59.926;30.404;2023-02-15T22:12:29;2.72;;;0.70;;
77738;SDS011;66904;59.926;30.404;2023-02-15T22:17:29;2.20;;;0.60;;
77738;SDS011;66904;59.926;30.404;2023-02-15T22:22:30;2.55;;;0.70;;
77738;SDS011;66904;59.926;30.404;2023-02-15T22:27:33;2.67;;;0.65;;
77738;SDS011;66904;59.926;30.404;2023-02-15T22:32:38;1.75;;;0.68;;
77738;SDS011;66904;59.926;30.404;2023-02-15T22:37:39;2.22;;;0.90;;
77738;SDS011;66904;59.926;30.404;2023-02-15T22:42:40;1.95;;;0.40;;
77738;SDS011;66904;59.926;30.404;2023-02-15T22:47:44;1.50;;;0.55;;
77738;SDS011;66904;59.926;30.404;2023-02-15T22:52:59;2.28;;;0.57;;
77738;SDS011;66904;59.926;30.404;2023-02-15T22:58:25;1.23;;;0.45;;
77738;SDS011;66904;59.926;30.404;2023-02-15T23:03:50;2.42;;;0.60;;
77738;SDS011;66904;59.926;30.404;2023-02-15T23:08:50;1.48;;;0.50;;
77738;SDS011;66904;59.926;30.404;2023-02-15T23:13:51;1.00;;;0.47;;
77738;SDS011;66904;59.926;30.404;2023-02-15T23:18:51;1.50;;;0.73;;
77738;SDS011;66904;59.926;30.404;2023-02-15T23:23:53;1.20;;;0.57;;
77738;SDS011;66904;59.926;30.404;2023-02-15T23:34:56;1.00;;;0.40;;
77738;SDS011;66904;59.926;30.404;2023-02-15T23:46:09;1.50;;;0.57;;
77738;SDS011;66904;59.926;30.404;2023-02-15T23:51:54;1.50;;;0.60;;
77738;SDS011;66904;59.926;30.404;2023-02-15T23:56:58;1.40;;;0.50;;
